Time;durP1;ratioP1;P1;durP2;ratioP2;P2;SDS_P1;SDS_P2;PMS_P1;PMS_P2;Temp;Humidity;BMP_temperature;BMP_pressure;BME280_temperature;BME280_humidity;BME280_pressure;Samples;Min_cycle;Max_cycle;Signal;HPM_P1;HPM_P2
2022/02/18 00:00:56;;;;;;;0.70;0.60;;;;;;;;;;5093727;28;20161;-76
2022/02/18 00:03:22;;;;;;;1.20;0.82;;;;;;;;;;5092617;28;20047;-76
2022/02/18 00:05:49;;;;;;;1.45;0.70;;;;;;;;;;5074601;28;20036;-76
2022/02/18 00:08:15;;;;;;;0.70;0.60;;;;;;;;;;5093093;28;20078;-76
2022/02/18 00:10:41;;;;;;;1.80;0.88;;;;;;;;;;5092776;28;20099;-76
2022/02/18 00:13:08;;;;;;;0.77;0.70;;;;;;;;;;5074653;28;20063;-76
2022/02/18 00:15:34;;;;;;;1.00;0.65;;;;;;;;;;5088475;28;20050;-76
2022/02/18 00:18:02;;;;;;;1.08;0.68;;;;;;;;;;5054538;28;20040;-76
2022/02/18 00:20:28;;;;;;;0.60;0.50;;;;;;;;;;5072559;28;20017;-76
2022/02/18 00:22:55;;;;;;;1.00;0.80;;;;;;;;;;5072469;28;20032;-76
2022/02/18 00:25:21;;;;;;;0.73;0.60;;;;;;;;;;5072677;28;20053;-76
2022/02/18 00:27:47;;;;;;;1.00;0.70;;;;;;;;;;5072068;28;20033;-76
2022/02/18 00:30:13;;;;;;;1.75;0.60;;;;;;;;;;5072408;28;20029;-76
2022/02/18 00:32:40;;;;;;;0.60;0.50;;;;;;;;;;5072490;28;20032;-76
2022/02/18 00:35:06;;;;;;;1.73;0.65;;;;;;;;;;5072415;28;20029;-76
2022/02/18 00:37:32;;;;;;;0.50;0.50;;;;;;;;;;5091074;28;20035;-76
2022/02/18 00:39:59;;;;;;;0.65;0.52;;;;;;;;;;5092878;28;20025;-76
2022/02/18 00:42:25;;;;;;;0.90;0.55;;;;;;;;;;5081897;28;20032;-76
2022/02/18 00:44:52;;;;;;;0.90;0.70;;;;;;;;;;5072505;28;20103;-76
2022/02/18 00:47:18;;;;;;;0.80;0.60;;;;;;;;;;5072575;28;20028;-76
2022/02/18 00:49:44;;;;;;;0.70;0.55;;;;;;;;;;5072601;28;20101;-76
2022/02/18 00:52:10;;;;;;;0.63;0.55;;;;;;;;;;5071966;28;20032;-76
2022/02/18 00:54:37;;;;;;;0.77;0.50;;;;;;;;;;5072380;28;20395;-76
2022/02/18 00:57:03;;;;;;;0.68;0.40;;;;;;;;;;5054346;28;20037;-76
2022/02/18 00:59:29;;;;;;;0.45;0.40;;;;;;;;;;5072792;28;20482;-76
2022/02/18 01:01:55;;;;;;;1.05;0.60;;;;;;;;;;5071784;28;20020;-76
2022/02/18 01:04:21;;;;;;;0.80;0.50;;;;;;;;;;5053955;28;20543;-76
2022/02/18 01:06:48;;;;;;;0.52;0.38;;;;;;;;;;5072295;28;20043;-76
2022/02/18 01:09:14;;;;;;;1.38;0.57;;;;;;;;;;5071989;28;20027;-76
2022/02/18 01:11:40;;;;;;;1.00;0.65;;;;;;;;;;5071627;28;20036;-76
2022/02/18 01:14:06;;;;;;;0.50;0.40;;;;;;;;;;5072125;28;20029;-76
2022/02/18 01:16:32;;;;;;;0.77;0.60;;;;;;;;;;5084039;28;20028;-76
2022/02/18 01:18:58;;;;;;;0.30;0.30;;;;;;;;;;5092198;28;20107;-76
2022/02/18 01:21:25;;;;;;;0.30;0.30;;;;;;;;;;5091542;28;20032;-76
2022/02/18 01:23:51;;;;;;;0.95;0.50;;;;;;;;;;5074085;28;20414;-76
2022/02/18 01:26:17;;;;;;;0.75;0.47;;;;;;;;;;5073983;28;20024;-76
2022/02/18 01:28:44;;;;;;;0.40;0.40;;;;;;;;;;5092297;28;20060;-76
2022/02/18 01:31:10;;;;;;;0.38;0.30;;;;;;;;;;5092010;28;20031;-76
2022/02/18 01:33:36;;;;;;;0.30;0.30;;;;;;;;;;5091640;28;20483;-76
2022/02/18 01:36:02;;;;;;;0.65;0.43;;;;;;;;;;5085801;28;20391;-76
2022/02/18 01:38:28;;;;;;;0.52;0.35;;;;;;;;;;5072885;28;20024;-76
2022/02/18 01:40:56;;;;;;;0.50;0.35;;;;;;;;;;5075669;28;20016;-76
2022/02/18 01:43:22;;;;;;;0.65;0.32;;;;;;;;;;5093507;28;20031;-76
2022/02/18 01:45:48;;;;;;;0.68;0.40;;;;;;;;;;5095542;28;20027;-76
2022/02/18 01:48:14;;;;;;;0.73;0.50;;;;;;;;;;5077387;28;20482;-76
2022/02/18 01:50:40;;;;;;;0.65;0.47;;;;;;;;;;5077450;28;20097;-76
2022/02/18 01:53:11;;;;;;;0.50;0.30;;;;;;;;;;5095644;28;20032;-76
2022/02/18 01:55:37;;;;;;;0.60;0.40;;;;;;;;;;5095679;28;20042;-76
2022/02/18 01:58:03;;;;;;;0.70;0.40;;;;;;;;;;5095605;28;20032;-76
2022/02/18 02:00:31;;;;;;;0.65;0.35;;;;;;;;;;5094062;28;20449;-76
2022/02/18 02:02:57;;;;;;;0.38;0.30;;;;;;;;;;5047239;28;20016;-76
2022/02/18 02:05:23;;;;;;;0.88;0.30;;;;;;;;;;5074598;28;20040;-76
2022/02/18 02:07:50;;;;;;;0.30;0.30;;;;;;;;;;5047974;28;20039;-76
2022/02/18 02:10:17;;;;;;;0.73;0.35;;;;;;;;;;5058540;28;20485;-76
2022/02/18 02:12:50;;;;;;;0.40;0.35;;;;;;;;;;5036282;28;20024;-76
2022/02/18 02:15:17;;;;;;;0.30;0.30;;;;;;;;;;5071968;28;20025;-76
2022/02/18 02:17:43;;;;;;;0.50;0.40;;;;;;;;;;5076546;28;20036;-76
2022/02/18 02:20:10;;;;;;;0.32;0.28;;;;;;;;;;5094547;28;20396;-76
2022/02/18 02:22:36;;;;;;;0.43;0.35;;;;;;;;;;5094253;28;20038;-76
2022/02/18 02:25:04;;;;;;;0.32;0.30;;;;;;;;;;5094443;28;20506;-76
2022/02/18 02:27:31;;;;;;;0.40;0.30;;;;;;;;;;5078047;28;20048;-75
2022/02/18 02:29:57;;;;;;;0.40;0.30;;;;;;;;;;5074197;28;20028;-76
2022/02/18 02:32:23;;;;;;;0.40;0.30;;;;;;;;;;5073682;28;20025;-76
2022/02/18 02:34:49;;;;;;;0.45;0.38;;;;;;;;;;5073859;28;20020;-75
2022/02/18 02:37:16;;;;;;;0.90;0.38;;;;;;;;;;5090348;28;20125;-75
2022/02/18 02:39:42;;;;;;;0.50;0.35;;;;;;;;;;5094494;28;20410;-76
2022/02/18 02:42:08;;;;;;;0.65;0.40;;;;;;;;;;5086236;28;20060;-76
2022/02/18 02:44:35;;;;;;;0.30;0.20;;;;;;;;;;5074615;28;20021;-76
2022/02/18 02:47:02;;;;;;;0.60;0.30;;;;;;;;;;5056214;28;20449;-76
2022/02/18 02:49:28;;;;;;;0.20;0.20;;;;;;;;;;5073967;28;20162;-76
2022/02/18 02:51:54;;;;;;;0.90;0.40;;;;;;;;;;5055259;28;20028;-76
2022/02/18 02:54:21;;;;;;;1.20;0.32;;;;;;;;;;5074096;28;20032;-76
2022/02/18 02:56:47;;;;;;;0.40;0.30;;;;;;;;;;5073987;28;20032;-76
2022/02/18 02:59:13;;;;;;;0.40;0.20;;;;;;;;;;5073941;28;20021;-76
2022/02/18 03:01:39;;;;;;;0.22;0.20;;;;;;;;;;5073622;28;20441;-76
2022/02/18 03:04:05;;;;;;;0.65;0.30;;;;;;;;;;5073926;28;20422;-76
2022/02/18 03:06:32;;;;;;;0.30;0.28;;;;;;;;;;5055811;28;20139;-76
2022/02/18 03:08:59;;;;;;;0.28;0.20;;;;;;;;;;5073857;28;20020;-76
2022/02/18 03:11:25;;;;;;;0.47;0.30;;;;;;;;;;5073213;28;20379;-76
2022/02/18 03:13:52;;;;;;;0.55;0.32;;;;;;;;;;5073705;28;20025;-76
2022/02/18 03:16:18;;;;;;;0.52;0.40;;;;;;;;;;5083832;28;20030;-76
2022/02/18 03:18:45;;;;;;;0.40;0.30;;;;;;;;;;5093738;28;20058;-76
2022/02/18 03:21:12;;;;;;;0.40;0.30;;;;;;;;;;5093796;28;20391;-76
2022/02/18 03:23:38;;;;;;;0.30;0.20;;;;;;;;;;5093248;28;20031;-76
2022/02/18 03:26:04;;;;;;;0.50;0.20;;;;;;;;;;5093648;28;20037;-76
2022/02/18 03:28:30;;;;;;;0.57;0.40;;;;;;;;;;5093825;28;20111;-76
2022/02/18 03:30:58;;;;;;;0.30;0.20;;;;;;;;;;5093566;28;20027;-76
2022/02/18 03:33:25;;;;;;;0.40;0.30;;;;;;;;;;5093012;28;20039;-76
2022/02/18 03:35:51;;;;;;;0.73;0.22;;;;;;;;;;5088616;28;20020;-76
2022/02/18 03:38:17;;;;;;;0.43;0.30;;;;;;;;;;5072836;28;20120;-76
2022/02/18 03:40:43;;;;;;;0.38;0.30;;;;;;;;;;5073079;28;20399;-76
2022/02/18 03:43:09;;;;;;;0.30;0.20;;;;;;;;;;5089201;28;20564;-76
2022/02/18 03:45:35;;;;;;;0.20;0.20;;;;;;;;;;5093590;28;20024;-76
2022/02/18 03:48:02;;;;;;;0.20;0.20;;;;;;;;;;5075056;28;20565;-76
2022/02/18 03:50:28;;;;;;;0.20;0.20;;;;;;;;;;5093327;28;20043;-76
2022/02/18 03:52:56;;;;;;;0.47;0.30;;;;;;;;;;5093277;28;20027;-76
2022/02/18 03:55:22;;;;;;;0.20;0.20;;;;;;;;;;5093127;28;20032;-76
2022/02/18 03:57:48;;;;;;;0.75;0.30;;;;;;;;;;5093012;28;20028;-76
2022/02/18 04:00:14;;;;;;;0.30;0.22;;;;;;;;;;5093151;28;20028;-76
2022/02/18 04:02:40;;;;;;;0.50;0.30;;;;;;;;;;5092268;28;20055;-76
2022/02/18 04:05:07;;;;;;;0.60;0.35;;;;;;;;;;5092717;28;20040;-76
2022/02/18 04:07:33;;;;;;;0.30;0.22;;;;;;;;;;5092883;28;20119;-76
2022/02/18 04:09:59;;;;;;;0.75;0.40;;;;;;;;;;5092944;28;20024;-76
2022/02/18 04:12:25;;;;;;;0.73;0.38;;;;;;;;;;5092320;28;20066;-76
2022/02/18 04:14:51;;;;;;;0.40;0.25;;;;;;;;;;5092761;28;20024;-76
2022/02/18 04:17:17;;;;;;;1.27;0.50;;;;;;;;;;5074251;28;20585;-76
2022/02/18 04:19:43;;;;;;;0.47;0.30;;;;;;;;;;5072372;28;20170;-76
2022/02/18 04:22:09;;;;;;;0.60;0.40;;;;;;;;;;5072036;28;20043;-76
2022/02/18 04:24:35;;;;;;;0.40;0.35;;;;;;;;;;5072358;28;20025;-76
2022/02/18 04:27:02;;;;;;;0.68;0.50;;;;;;;;;;5072648;28;20166;-76
2022/02/18 04:29:28;;;;;;;0.95;0.30;;;;;;;;;;5072209;28;20032;-76
2022/02/18 04:31:54;;;;;;;0.85;0.55;;;;;;;;;;5071812;28;20025;-76
2022/02/18 04:34:20;;;;;;;0.55;0.47;;;;;;;;;;5072369;28;20037;-76
2022/02/18 04:36:46;;;;;;;0.57;0.43;;;;;;;;;;5084814;28;20504;-76
2022/02/18 04:39:12;;;;;;;0.98;0.40;;;;;;;;;;5092446;28;20100;-76
2022/02/18 04:41:38;;;;;;;0.60;0.45;;;;;;;;;;5070590;28;20028;-76
2022/02/18 04:44:05;;;;;;;0.50;0.45;;;;;;;;;;5072971;28;20013;-76
2022/02/18 04:46:31;;;;;;;0.68;0.40;;;;;;;;;;5073065;28;20025;-76
2022/02/18 04:48:57;;;;;;;1.05;0.50;;;;;;;;;;5054856;28;20044;-76
2022/02/18 04:51:24;;;;;;;0.90;0.60;;;;;;;;;;5072298;28;20090;-75
2022/02/18 04:53:50;;;;;;;0.75;0.40;;;;;;;;;;5054203;28;20048;-76
2022/02/18 04:56:16;;;;;;;0.95;0.60;;;;;;;;;;5072905;28;20028;-76
2022/02/18 04:58:42;;;;;;;0.50;0.43;;;;;;;;;;5072869;28;20063;-76
2022/02/18 05:01:09;;;;;;;0.80;0.70;;;;;;;;;;5073073;28;20020;-76
2022/02/18 05:03:36;;;;;;;1.00;0.70;;;;;;;;;;5071575;28;20335;-76
2022/02/18 05:06:03;;;;;;;1.08;0.50;;;;;;;;;;5072008;28;20444;-76
2022/02/18 05:08:29;;;;;;;1.33;0.68;;;;;;;;;;5074509;28;20028;-76
2022/02/18 05:10:55;;;;;;;0.40;0.40;;;;;;;;;;5089738;28;20024;-76
2022/02/18 05:13:21;;;;;;;0.60;0.43;;;;;;;;;;5052458;28;20385;-76
2022/02/18 05:15:47;;;;;;;2.35;0.63;;;;;;;;;;5065916;28;20022;-76
2022/02/18 05:18:13;;;;;;;0.40;0.40;;;;;;;;;;5077865;28;20472;-76
2022/02/18 05:20:39;;;;;;;0.68;0.40;;;;;;;;;;5096135;28;20027;-76
2022/02/18 05:23:06;;;;;;;1.00;0.60;;;;;;;;;;5095994;28;20028;-76
2022/02/18 05:25:32;;;;;;;1.17;0.38;;;;;;;;;;5080728;28;20017;-76
2022/02/18 05:28:04;;;;;;;0.93;0.45;;;;;;;;;;5057730;28;20091;-76
2022/02/18 05:30:31;;;;;;;1.52;1.05;;;;;;;;;;5057600;28;20052;-76
2022/02/18 05:32:57;;;;;;;1.15;0.77;;;;;;;;;;5075730;28;20063;-76
2022/02/18 05:35:23;;;;;;;1.38;0.88;;;;;;;;;;5077223;28;20025;-76
2022/02/18 05:37:49;;;;;;;0.80;0.50;;;;;;;;;;5096958;28;20494;-77
2022/02/18 05:40:15;;;;;;;2.25;0.60;;;;;;;;;;5095804;28;20020;-77
2022/02/18 05:42:41;;;;;;;0.90;0.65;;;;;;;;;;5061809;28;20028;-77
2022/02/18 05:45:08;;;;;;;2.33;0.70;;;;;;;;;;5095583;28;20457;-77
2022/02/18 05:47:37;;;;;;;2.92;0.60;;;;;;;;;;5095536;28;20115;-77
2022/02/18 05:50:05;;;;;;;1.75;0.60;;;;;;;;;;5095710;28;20525;-77
2022/02/18 05:52:31;;;;;;;1.08;0.60;;;;;;;;;;5077344;28;20486;-77
2022/02/18 05:54:57;;;;;;;1.00;0.68;;;;;;;;;;5093684;28;20047;-77
2022/02/18 05:57:23;;;;;;;1.65;0.68;;;;;;;;;;5088795;28;20081;-77
2022/02/18 05:59:49;;;;;;;0.98;0.45;;;;;;;;;;5095311;28;20020;-77
2022/02/18 06:02:15;;;;;;;1.05;0.70;;;;;;;;;;5094917;28;20032;-77
2022/02/18 06:04:41;;;;;;;1.27;0.65;;;;;;;;;;5094821;28;20055;-77
2022/02/18 06:07:07;;;;;;;1.35;0.55;;;;;;;;;;5095417;28;20490;-76
2022/02/18 06:09:33;;;;;;;1.30;0.63;;;;;;;;;;5095620;28;20493;-76
2022/02/18 06:11:59;;;;;;;1.40;0.75;;;;;;;;;;5095012;28;20445;-76
2022/02/18 06:14:25;;;;;;;1.27;0.73;;;;;;;;;;5095067;28;20061;-76
2022/02/18 06:16:51;;;;;;;1.75;0.80;;;;;;;;;;5078793;28;20033;-76
2022/02/18 06:19:17;;;;;;;0.95;0.40;;;;;;;;;;5074521;28;20024;-76
2022/02/18 06:21:44;;;;;;;2.88;0.80;;;;;;;;;;5074136;28;20028;-76
2022/02/18 06:24:10;;;;;;;2.65;0.65;;;;;;;;;;5074751;28;20021;-76
2022/02/18 06:26:36;;;;;;;2.03;1.05;;;;;;;;;;5055444;28;20028;-77
2022/02/18 06:29:02;;;;;;;1.02;0.70;;;;;;;;;;5056515;28;20025;-77
2022/02/18 06:31:29;;;;;;;1.58;0.80;;;;;;;;;;5073749;28;20124;-76
2022/02/18 06:33:55;;;;;;;1.05;0.77;;;;;;;;;;5074750;28;20024;-76
2022/02/18 06:36:22;;;;;;;0.65;0.50;;;;;;;;;;5065693;28;20020;-77
2022/02/18 06:38:48;;;;;;;1.38;0.70;;;;;;;;;;5094789;28;20501;-76
2022/02/18 06:41:14;;;;;;;1.45;0.65;;;;;;;;;;5094804;28;20453;-77
2022/02/18 06:43:40;;;;;;;1.13;0.80;;;;;;;;;;5074362;28;20494;-77
2022/02/18 06:46:06;;;;;;;0.90;0.52;;;;;;;;;;5074455;28;20127;-77
2022/02/18 06:48:32;;;;;;;1.33;0.70;;;;;;;;;;5056225;28;20029;-77
2022/02/18 06:50:58;;;;;;;0.98;0.60;;;;;;;;;;5056252;28;20044;-77
2022/02/18 06:53:25;;;;;;;1.75;0.90;;;;;;;;;;5073329;28;20033;-77
2022/02/18 06:55:52;;;;;;;1.75;1.00;;;;;;;;;;5074367;28;20024;-77
2022/02/18 06:58:19;;;;;;;1.23;0.80;;;;;;;;;;5055809;28;20036;-78
2022/02/18 07:00:45;;;;;;;1.23;0.70;;;;;;;;;;5056258;28;20410;-77
2022/02/18 07:03:11;;;;;;;2.72;0.60;;;;;;;;;;5055400;28;20021;-78
2022/02/18 07:05:37;;;;;;;2.13;0.82;;;;;;;;;;5073539;28;20037;-77
2022/02/18 07:08:03;;;;;;;1.67;0.90;;;;;;;;;;5073810;28;20033;-77
2022/02/18 07:10:30;;;;;;;0.90;0.50;;;;;;;;;;5073515;28;20031;-78
2022/02/18 07:12:56;;;;;;;1.05;0.65;;;;;;;;;;5073488;28;20037;-76
2022/02/18 07:15:24;;;;;;;0.65;0.40;;;;;;;;;;5077074;28;20085;-76
2022/02/18 07:17:50;;;;;;;1.35;0.90;;;;;;;;;;5075548;28;20024;-77
2022/02/18 07:20:17;;;;;;;1.75;0.60;;;;;;;;;;5093247;28;20042;-76
2022/02/18 07:22:44;;;;;;;0.60;0.50;;;;;;;;;;5094203;28;20036;-77
2022/02/18 07:25:10;;;;;;;1.20;0.80;;;;;;;;;;5075141;28;20069;-76
2022/02/18 07:27:36;;;;;;;0.80;0.60;;;;;;;;;;5075445;28;20413;-76
2022/02/18 07:30:03;;;;;;;1.00;0.50;;;;;;;;;;5076915;28;20063;-76
2022/02/18 07:32:29;;;;;;;0.90;0.60;;;;;;;;;;5073058;28;20115;-76
2022/02/18 07:34:55;;;;;;;0.80;0.60;;;;;;;;;;5073557;28;20081;-76
2022/02/18 07:37:21;;;;;;;0.63;0.52;;;;;;;;;;5090030;28;20107;-76
2022/02/18 07:39:47;;;;;;;0.98;0.60;;;;;;;;;;5092239;28;20016;-76
2022/02/18 07:42:14;;;;;;;1.85;0.80;;;;;;;;;;5084411;28;20494;-76
2022/02/18 07:44:41;;;;;;;1.27;0.70;;;;;;;;;;5072939;28;20044;-76
2022/02/18 07:47:07;;;;;;;0.82;0.50;;;;;;;;;;5073432;28;20086;-76
2022/02/18 07:49:33;;;;;;;1.02;0.57;;;;;;;;;;5071828;28;20487;-76
2022/02/18 07:51:59;;;;;;;0.75;0.52;;;;;;;;;;5069512;28;20021;-76
2022/02/18 07:54:25;;;;;;;0.90;0.55;;;;;;;;;;5070930;28;20025;-76
2022/02/18 07:56:51;;;;;;;1.10;0.60;;;;;;;;;;5071153;28;20037;-77
2022/02/18 07:59:17;;;;;;;1.13;0.70;;;;;;;;;;5070850;28;20016;-76
2022/02/18 08:01:43;;;;;;;2.00;0.60;;;;;;;;;;5052854;28;20175;-76
2022/02/18 08:04:09;;;;;;;2.25;0.80;;;;;;;;;;5053933;28;20052;-78
2022/02/18 08:06:36;;;;;;;0.85;0.70;;;;;;;;;;5071604;28;20051;-77
2022/02/18 08:09:02;;;;;;;0.88;0.50;;;;;;;;;;5055463;28;20016;-78
2022/02/18 08:11:28;;;;;;;3.13;0.77;;;;;;;;;;5054859;28;20040;-77
2022/02/18 08:13:54;;;;;;;1.75;0.60;;;;;;;;;;5068915;28;20107;-77
2022/02/18 08:16:21;;;;;;;0.73;0.52;;;;;;;;;;5063535;28;20028;-77
2022/02/18 08:18:48;;;;;;;4.00;0.80;;;;;;;;;;5059931;28;20695;-76
2022/02/18 08:21:15;;;;;;;2.17;1.15;;;;;;;;;;5064709;28;20864;-78
2022/02/18 08:23:41;;;;;;;3.80;1.08;;;;;;;;;;5049903;28;20021;-77
2022/02/18 08:26:08;;;;;;;3.35;0.80;;;;;;;;;;5052112;28;20743;-76
2022/02/18 08:28:34;;;;;;;3.97;0.85;;;;;;;;;;5060681;28;20086;-76
2022/02/18 08:31:00;;;;;;;5.93;0.65;;;;;;;;;;5045276;28;20033;-76
2022/02/18 08:33:26;;;;;;;4.22;0.68;;;;;;;;;;5054565;28;20483;-76
2022/02/18 08:35:52;;;;;;;1.52;0.50;;;;;;;;;;5064794;28;20025;-76
2022/02/18 08:38:18;;;;;;;2.30;0.70;;;;;;;;;;5055160;28;20679;-77
2022/02/18 08:40:44;;;;;;;2.58;0.80;;;;;;;;;;5039854;28;20119;-76
2022/02/18 08:43:11;;;;;;;2.75;0.70;;;;;;;;;;5051869;28;20082;-76
2022/02/18 08:45:37;;;;;;;0.63;0.50;;;;;;;;;;5056524;28;20029;-76
2022/02/18 08:48:03;;;;;;;2.97;0.60;;;;;;;;;;5059284;28;20108;-77
2022/02/18 08:50:29;;;;;;;1.50;0.75;;;;;;;;;;5067252;28;20028;-77
2022/02/18 08:52:55;;;;;;;1.83;0.60;;;;;;;;;;5045032;28;20067;-77
2022/02/18 08:55:22;;;;;;;1.48;0.70;;;;;;;;;;5039413;28;20492;-77
2022/02/18 08:57:51;;;;;;;1.40;0.68;;;;;;;;;;5064701;28;20104;-77
2022/02/18 09:00:18;;;;;;;1.83;0.63;;;;;;;;;;5058239;28;20053;-76
2022/02/18 09:02:44;;;;;;;0.77;0.57;;;;;;;;;;5042547;28;20048;-77
2022/02/18 09:05:11;;;;;;;3.80;0.55;;;;;;;;;;5068801;28;20055;-75
2022/02/18 09:07:39;;;;;;;1.50;0.80;;;;;;;;;;5064880;28;20402;-74
2022/02/18 09:10:05;;;;;;;1.55;0.80;;;;;;;;;;5048654;28;20042;-75
2022/02/18 09:12:37;;;;;;;1.25;0.73;;;;;;;;;;5053466;28;20087;-75
2022/02/18 09:15:05;;;;;;;1.35;0.68;;;;;;;;;;5051172;28;20502;-76
2022/02/18 09:17:32;;;;;;;2.38;0.70;;;;;;;;;;5061961;28;20060;-76
2022/02/18 09:19:58;;;;;;;1.00;0.70;;;;;;;;;;5042942;28;20070;-77
2022/02/18 09:22:25;;;;;;;1.60;0.63;;;;;;;;;;5058857;28;20021;-77
2022/02/18 09:24:51;;;;;;;1.17;0.65;;;;;;;;;;5060801;28;20031;-77
2022/02/18 09:27:17;;;;;;;0.73;0.50;;;;;;;;;;5060794;28;20028;-77
2022/02/18 09:29:43;;;;;;;1.20;0.80;;;;;;;;;;5057148;28;20372;-77
2022/02/18 09:32:09;;;;;;;0.85;0.60;;;;;;;;;;5055933;28;20029;-76
2022/02/18 09:34:36;;;;;;;2.35;0.52;;;;;;;;;;5057018;28;20056;-77
2022/02/18 09:37:04;;;;;;;1.45;0.85;;;;;;;;;;5063713;28;20032;-76
2022/02/18 09:39:30;;;;;;;0.80;0.55;;;;;;;;;;5052824;28;20040;-77
2022/02/18 09:41:57;;;;;;;2.78;0.80;;;;;;;;;;5052908;28;20053;-77
2022/02/18 09:44:25;;;;;;;4.32;0.95;;;;;;;;;;5067779;28;20028;-79
2022/02/18 09:46:52;;;;;;;1.02;0.57;;;;;;;;;;5074368;28;20112;-76
2022/02/18 09:49:18;;;;;;;0.60;0.50;;;;;;;;;;5055878;28;20059;-79
2022/02/18 09:51:45;;;;;;;2.05;0.70;;;;;;;;;;5068741;28;20027;-78
2022/02/18 09:54:12;;;;;;;0.68;0.50;;;;;;;;;;5060315;28;20021;-76
2022/02/18 09:56:42;;;;;;;0.80;0.63;;;;;;;;;;5047512;28;20086;-76
2022/02/18 09:59:10;;;;;;;2.90;0.80;;;;;;;;;;5039655;28;20013;-76
2022/02/18 10:01:36;;;;;;;3.10;0.43;;;;;;;;;;5065549;28;20028;-75
2022/02/18 10:04:03;;;;;;;2.03;0.65;;;;;;;;;;5061011;28;20021;-74
2022/02/18 10:06:30;;;;;;;0.75;0.60;;;;;;;;;;5064805;28;20044;-75
2022/02/18 10:08:58;;;;;;;1.73;0.80;;;;;;;;;;5067576;28;20032;-76
2022/02/18 10:11:24;;;;;;;0.88;0.60;;;;;;;;;;5069478;28;20416;-76
2022/02/18 10:13:53;;;;;;;1.23;0.70;;;;;;;;;;5055179;28;20682;-75
2022/02/18 10:16:19;;;;;;;4.28;0.80;;;;;;;;;;5058569;28;20388;-74
2022/02/18 10:18:45;;;;;;;1.02;0.60;;;;;;;;;;5056023;28;20034;-75
2022/02/18 10:21:16;;;;;;;1.85;0.73;;;;;;;;;;5066074;28;20024;-75
2022/02/18 10:23:42;;;;;;;2.03;0.75;;;;;;;;;;5040150;28;20542;-75
2022/02/18 10:26:08;;;;;;;1.92;0.50;;;;;;;;;;5058728;28;20537;-76
2022/02/18 10:28:34;;;;;;;2.72;0.88;;;;;;;;;;5059348;28;20024;-76
2022/02/18 10:31:01;;;;;;;2.10;0.75;;;;;;;;;;5064443;28;20035;-77
2022/02/18 10:33:28;;;;;;;2.75;0.90;;;;;;;;;;5060724;28;20059;-75
2022/02/18 10:36:01;;;;;;;1.60;0.60;;;;;;;;;;5060248;28;20024;-76
2022/02/18 10:38:34;;;;;;;3.67;0.80;;;;;;;;;;5040618;28;20029;-79
2022/02/18 10:41:00;;;;;;;1.73;0.70;;;;;;;;;;5036965;28;20107;-77
2022/02/18 10:43:28;;;;;;;1.10;0.60;;;;;;;;;;5055304;28;20079;-76
2022/02/18 10:46:04;;;;;;;1.23;0.70;;;;;;;;;;5032940;28;20025;-77
2022/02/18 10:48:33;;;;;;;1.63;0.65;;;;;;;;;;5045956;28;20891;-77
2022/02/18 10:51:14;;;;;;;2.05;0.90;;;;;;;;;;5040345;28;20120;-79
2022/02/18 10:53:44;;;;;;;2.17;0.70;;;;;;;;;;5063515;28;20036;-77
2022/02/18 10:56:14;;;;;;;2.95;0.73;;;;;;;;;;5064123;28;20028;-78
2022/02/18 10:58:51;;;;;;;3.33;1.00;;;;;;;;;;5051104;28;20040;-77
2022/02/18 11:01:19;;;;;;;3.30;0.88;;;;;;;;;;5059954;28;20737;-77
2022/02/18 11:03:53;;;;;;;3.92;1.10;;;;;;;;;;5046628;28;20027;-77
2022/02/18 11:06:22;;;;;;;2.65;0.70;;;;;;;;;;5058740;28;20115;-77
2022/02/18 11:08:54;;;;;;;1.80;0.77;;;;;;;;;;5043773;28;20028;-75
2022/02/18 11:11:21;;;;;;;1.30;0.77;;;;;;;;;;5079097;28;20031;-76
2022/02/18 11:13:48;;;;;;;2.70;1.17;;;;;;;;;;5054090;28;20032;-78
2022/02/18 11:16:17;;;;;;;2.65;1.02;;;;;;;;;;5069151;28;20032;-80
2022/02/18 11:18:45;;;;;;;3.47;1.30;;;;;;;;;;5053812;28;20037;-76
2022/02/18 11:21:13;;;;;;;3.30;1.17;;;;;;;;;;5058118;28;20618;-76
2022/02/18 11:23:42;;;;;;;2.83;1.58;;;;;;;;;;5029024;28;20009;-77
2022/02/18 11:26:14;;;;;;;3.33;1.50;;;;;;;;;;5058652;28;20388;-75
2022/02/18 11:28:41;;;;;;;3.17;1.10;;;;;;;;;;5066386;28;20028;-75
2022/02/18 11:31:09;;;;;;;5.88;3.80;;;;;;;;;;5066947;28;20036;-75
2022/02/18 11:33:52;;;;;;;3.50;1.80;;;;;;;;;;5067088;28;20571;-76
2022/02/18 11:36:19;;;;;;;;;;;;;;;;;;5077435;28;20025;-78
2022/02/18 11:38:54;;;;;;;3.80;2.50;;;;;;;;;;5088204;28;20018;-78
2022/02/18 11:41:32;;;;;;;3.55;1.73;;;;;;;;;;5088416;28;20031;-79
2022/02/18 11:44:01;;;;;;;3.63;1.80;;;;;;;;;;5068512;28;20631;-77
2022/02/18 11:46:28;;;;;;;4.40;2.40;;;;;;;;;;5067781;28;20059;-78
2022/02/18 11:48:59;;;;;;;7.97;2.45;;;;;;;;;;5068385;28;20048;-79
2022/02/18 11:51:45;;;;;;;3.03;2.40;;;;;;;;;;5050757;28;20043;-79
2022/02/18 11:54:44;;;;;;;4.88;2.40;;;;;;;;;;5050986;28;20037;-79
2022/02/18 11:57:10;;;;;;;5.28;2.78;;;;;;;;;;4998466;28;20032;-78
2022/02/18 11:59:45;;;;;;;2.95;1.85;;;;;;;;;;5070835;28;20032;-78
2022/02/18 12:02:11;;;;;;;2.53;1.50;;;;;;;;;;5055511;28;20119;-79
2022/02/18 12:04:38;;;;;;;4.60;1.90;;;;;;;;;;5083100;28;20093;-81
2022/02/18 12:07:23;;;;;;;4.18;1.50;;;;;;;;;;5063109;28;20056;-81
2022/02/18 12:09:52;;;;;;;2.75;1.00;;;;;;;;;;5058292;28;20028;-79
2022/02/18 12:12:22;;;;;;;4.72;1.70;;;;;;;;;;5087975;28;20055;-79
2022/02/18 12:14:50;;;;;;;2.70;1.20;;;;;;;;;;5088374;28;20032;-79
2022/02/18 12:17:18;;;;;;;6.22;2.25;;;;;;;;;;5052200;28;20039;-79
2022/02/18 12:19:46;;;;;;;3.53;2.08;;;;;;;;;;5060520;28;20499;-80
2022/02/18 12:22:13;;;;;;;3.13;1.65;;;;;;;;;;5046759;28;20078;-78
2022/02/18 12:24:44;;;;;;;3.05;1.17;;;;;;;;;;5047026;28;20029;-78
2022/02/18 12:27:20;;;;;;;4.97;1.90;;;;;;;;;;5048428;28;20031;-77
2022/02/18 12:29:46;;;;;;;3.33;1.60;;;;;;;;;;5048937;28;20029;-77
2022/02/18 12:32:14;;;;;;;4.97;2.45;;;;;;;;;;5030947;28;20600;-76
2022/02/18 12:34:41;;;;;;;3.75;1.75;;;;;;;;;;5047989;28;20451;-76
2022/02/18 12:37:08;;;;;;;4.93;1.35;;;;;;;;;;5069739;28;20169;-77
2022/02/18 12:39:42;;;;;;;2.80;1.17;;;;;;;;;;5066641;28;20029;-76
2022/02/18 12:42:09;;;;;;;2.47;1.30;;;;;;;;;;5074191;28;20024;-77
2022/02/18 12:44:35;;;;;;;2.45;1.40;;;;;;;;;;5086805;28;20046;-78
2022/02/18 12:47:01;;;;;;;5.20;1.42;;;;;;;;;;5087307;28;20043;-77
2022/02/18 12:49:41;;;;;;;2.10;1.10;;;;;;;;;;5069289;28;20032;-78
2022/02/18 12:52:12;;;;;;;4.57;2.00;;;;;;;;;;5048878;28;20111;-78
2022/02/18 12:54:48;;;;;;;8.25;1.60;;;;;;;;;;5044701;28;20029;-76
2022/02/18 12:57:26;;;;;;;4.53;1.40;;;;;;;;;;5055085;28;20069;-76
2022/02/18 12:59:53;;;;;;;2.47;1.10;;;;;;;;;;5050863;28;20155;-73
2022/02/18 13:02:38;;;;;;;2.22;1.20;;;;;;;;;;5067369;28;20881;-73
2022/02/18 13:05:05;;;;;;;4.90;1.63;;;;;;;;;;5057443;28;20526;-77
2022/02/18 13:07:38;;;;;;;2.88;1.50;;;;;;;;;;5065857;28;20038;-74
2022/02/18 13:10:06;;;;;;;3.67;0.98;;;;;;;;;;5041749;28;20025;-74
2022/02/18 13:12:33;;;;;;;3.72;1.27;;;;;;;;;;5049909;28;20109;-75
2022/02/18 13:15:05;;;;;;;4.85;1.30;;;;;;;;;;5064489;28;20554;-76
2022/02/18 13:17:32;;;;;;;2.55;1.00;;;;;;;;;;5058018;28;20414;-73
2022/02/18 13:19:58;;;;;;;3.05;1.50;;;;;;;;;;5032892;28;20086;-73
2022/02/18 13:22:37;;;;;;;2.35;1.02;;;;;;;;;;5047180;28;20039;-73
2022/02/18 13:25:24;;;;;;;2.15;1.10;;;;;;;;;;5038007;28;20021;-73
2022/02/18 13:27:51;;;;;;;1.95;1.20;;;;;;;;;;5046737;28;20499;-73
2022/02/18 13:30:18;;;;;;;4.40;1.50;;;;;;;;;;5064077;28;20036;-74
2022/02/18 13:32:45;;;;;;;3.67;1.17;;;;;;;;;;5046998;28;20028;-74
2022/02/18 13:35:17;;;;;;;3.28;0.80;;;;;;;;;;5068297;28;20032;-74
2022/02/18 13:37:43;;;;;;;2.97;1.30;;;;;;;;;;5058401;28;20031;-74
2022/02/18 13:40:14;;;;;;;4.50;0.90;;;;;;;;;;5057208;28;20037;-73
2022/02/18 13:42:50;;;;;;;2.70;0.98;;;;;;;;;;5063801;28;20036;-72
2022/02/18 13:45:16;;;;;;;2.08;1.10;;;;;;;;;;5054890;28;20044;-73
2022/02/18 13:47:42;;;;;;;2.08;1.05;;;;;;;;;;5059412;28;20092;-72
2022/02/18 13:50:09;;;;;;;3.97;0.95;;;;;;;;;;5039333;28;20032;-73
2022/02/18 13:52:36;;;;;;;2.28;1.00;;;;;;;;;;5037996;28;20031;-73
2022/02/18 13:55:02;;;;;;;2.75;1.10;;;;;;;;;;5064700;28;20032;-73
2022/02/18 13:57:32;;;;;;;2.63;1.20;;;;;;;;;;5048050;28;20833;-72
2022/02/18 13:59:58;;;;;;;2.25;1.08;;;;;;;;;;5061670;28;20024;-73
2022/02/18 14:02:24;;;;;;;4.20;0.93;;;;;;;;;;5065136;28;20048;-73
2022/02/18 14:04:53;;;;;;;2.47;1.10;;;;;;;;;;5052868;28;20054;-73
2022/02/18 14:07:24;;;;;;;1.00;0.70;;;;;;;;;;5059605;28;20032;-72
2022/02/18 14:09:56;;;;;;;2.85;0.90;;;;;;;;;;5061749;28;20638;-73
2022/02/18 14:12:40;;;;;;;2.17;0.98;;;;;;;;;;5059519;28;20759;-73
2022/02/18 14:15:07;;;;;;;1.05;0.60;;;;;;;;;;5062323;28;20052;-73
2022/02/18 14:17:33;;;;;;;2.45;0.95;;;;;;;;;;5062805;28;20368;-72
2022/02/18 14:20:01;;;;;;;1.75;0.95;;;;;;;;;;5071005;28;20027;-73
2022/02/18 14:22:28;;;;;;;2.28;0.93;;;;;;;;;;5065729;28;20025;-72
2022/02/18 14:24:54;;;;;;;1.85;1.00;;;;;;;;;;5041303;28;20027;-73
2022/02/18 14:27:21;;;;;;;3.55;1.10;;;;;;;;;;5056788;28;20111;-74
2022/02/18 14:30:07;;;;;;;2.10;0.68;;;;;;;;;;5061562;28;20025;-73
2022/02/18 14:32:38;;;;;;;1.80;0.68;;;;;;;;;;5055587;28;20519;-74
2022/02/18 14:35:04;;;;;;;3.10;0.95;;;;;;;;;;5050367;28;20132;-74
2022/02/18 14:37:31;;;;;;;1.70;1.10;;;;;;;;;;5067018;28;20029;-73
2022/02/18 14:40:09;;;;;;;0.90;0.77;;;;;;;;;;5069075;28;20565;-73
2022/02/18 14:42:35;;;;;;;2.63;0.98;;;;;;;;;;5078178;28;20020;-73
2022/02/18 14:45:05;;;;;;;1.67;0.82;;;;;;;;;;5048111;28;20029;-76